createdAt,value
2023-02-17T00:03:14.754Z,39.58
2023-02-17T00:13:16.299Z,39.31
2023-02-17T00:23:17.894Z,39.07
2023-02-17T00:33:19.315Z,38.81
2023-02-17T00:43:20.695Z,38.68
2023-02-17T00:53:22.221Z,38.35
2023-02-17T01:03:23.839Z,38.29
2023-02-17T01:13:25.413Z,38.13
2023-02-17T01:23:26.958Z,38.13
2023-02-17T01:33:28.361Z,38.36
2023-02-17T01:43:29.767Z,38.27
2023-02-17T01:53:35.301Z,38.42
2023-02-17T02:03:37.558Z,38.62
2023-02-17T02:13:38.965Z,38.69
2023-02-17T02:23:50.305Z,38.72
2023-02-17T02:33:53.756Z,38.83
2023-02-17T02:43:55.403Z,38.92
2023-02-17T02:54:06.837Z,38.79
2023-02-17T03:04:13.004Z,38.90
2023-02-17T03:14:16.275Z,38.99
2023-02-17T03:24:17.775Z,38.98
2023-02-17T03:34:19.273Z,39.10
2023-02-17T03:44:20.649Z,39.13
2023-02-17T03:54:22.055Z,39.09
2023-02-17T04:04:23.553Z,39.18
2023-02-17T04:14:24.949Z,39.11
2023-02-17T04:24:26.359Z,39.13
2023-02-17T04:34:27.746Z,39.24
2023-02-17T04:44:29.128Z,39.24
2023-02-17T04:54:30.648Z,39.21
2023-02-17T05:04:32.072Z,39.25
2023-02-17T05:14:33.489Z,39.01
2023-02-17T05:24:35.033Z,38.72
2023-02-17T05:34:36.428Z,38.41
2023-02-17T05:44:37.808Z,38.18
2023-02-17T05:54:39.239Z,37.99
2023-02-17T06:04:40.674Z,37.83
2023-02-17T06:14:43.408Z,37.83
2023-02-17T06:24:45.058Z,37.80
2023-02-17T06:34:46.442Z,37.83
2023-02-17T06:44:48.327Z,38.04
2023-02-17T06:54:49.903Z,38.14
2023-02-17T07:04:51.303Z,38.14
2023-02-17T07:14:52.741Z,38.18
2023-02-17T07:24:54.172Z,38.05
2023-02-17T07:34:55.717Z,38.03
2023-02-17T07:44:57.651Z,38.07
2023-02-17T07:54:59.178Z,38.19
2023-02-17T08:05:00.700Z,38.22
2023-02-17T08:15:02.260Z,38.35
2023-02-17T08:25:06.113Z,38.25
2023-02-17T08:35:07.968Z,38.22
2023-02-17T08:45:09.359Z,38.28
2023-02-17T08:55:11.152Z,38.36
2023-02-17T09:05:13.663Z,38.24
2023-02-17T09:15:15.112Z,38.15
2023-02-17T09:25:16.529Z,38.13
2023-02-17T09:35:18.181Z,38.10
2023-02-17T09:45:22.259Z,37.98
2023-02-17T09:55:24.897Z,37.93
2023-02-17T10:05:29.408Z,37.97
2023-02-17T10:15:35.131Z,37.92
2023-02-17T10:26:06.212Z,37.78
2023-02-17T10:36:15.378Z,37.85
2023-02-17T10:46:17.982Z,37.78
2023-02-17T10:56:44.183Z,37.60
2023-02-17T11:06:52.776Z,37.73
2023-02-17T11:17:14.342Z,37.82
2023-02-17T11:27:15.723Z,37.78
2023-02-17T11:37:23.722Z,38.00
2023-02-17T11:47:49.543Z,37.87
2023-02-17T11:57:58.285Z,37.86
2023-02-17T12:08:30.629Z,37.75
2023-02-17T12:19:02.271Z,37.74
2023-02-17T12:29:09.743Z,37.88
2023-02-17T12:39:12.798Z,37.98
2023-02-17T12:49:19.308Z,38.00
2023-02-17T12:59:39.807Z,38.01
2023-02-17T13:09:41.387Z,37.96
2023-02-17T13:19:42.793Z,38.01
2023-02-17T13:29:44.318Z,37.96
2023-02-17T13:39:45.736Z,38.17
2023-02-17T13:49:54.391Z,38.24
2023-02-17T14:00:25.282Z,38.21
2023-02-17T14:10:26.865Z,37.98
2023-02-17T14:20:34.817Z,38.23
2023-02-17T14:30:38.234Z,38.43
2023-02-17T14:40:40.299Z,38.44
2023-02-17T14:50:44.677Z,38.52
2023-02-17T15:00:46.693Z,38.56
2023-02-17T15:10:48.725Z,38.58
2023-02-17T15:20:50.557Z,38.60
2023-02-17T15:30:54.444Z,38.61
2023-02-17T15:40:58.765Z,38.76
2023-02-17T15:51:00.206Z,38.87
2023-02-17T16:01:01.992Z,38.85
2023-02-17T16:11:03.398Z,39.02
2023-02-17T16:21:04.830Z,38.98
2023-02-17T16:31:06.221Z,39.05
2023-02-17T16:41:11.312Z,39.16
2023-02-17T16:51:12.732Z,39.08
2023-02-17T17:01:14.151Z,39.27
2023-02-17T17:11:16.687Z,39.33
2023-02-17T17:21:18.517Z,39.70
2023-02-17T17:31:20.989Z,39.79
2023-02-17T17:41:23.162Z,39.77
2023-02-17T17:51:24.790Z,39.77
2023-02-17T18:01:26.270Z,39.84
2023-02-17T18:11:27.934Z,39.91
2023-02-17T18:21:29.331Z,39.83
2023-02-17T18:31:30.854Z,39.93
2023-02-17T18:41:33.184Z,40.12
2023-02-17T18:51:34.624Z,39.99
2023-02-17T19:01:38.404Z,39.94
2023-02-17T19:11:39.947Z,40.06
2023-02-17T19:21:41.347Z,40.09
2023-02-17T19:31:42.811Z,40.03
2023-02-17T19:41:44.416Z,39.98
2023-02-17T19:51:45.979Z,40.00
2023-02-17T20:01:47.417Z,39.94
2023-02-17T20:11:49.332Z,39.96
2023-02-17T20:21:50.765Z,40.04
2023-02-17T20:31:52.256Z,40.07
2023-02-17T20:41:54.505Z,40.10
2023-02-17T20:51:55.976Z,40.23
2023-02-17T21:01:57.484Z,40.28
2023-02-17T21:11:59.483Z,40.16
2023-02-17T21:22:01.002Z,40.17
2023-02-17T21:32:02.473Z,40.29
2023-02-17T21:42:04.110Z,40.35
2023-02-17T21:52:05.667Z,40.47
2023-02-17T22:02:07.284Z,40.42
2023-02-17T22:12:08.833Z,40.34
2023-02-17T22:22:10.759Z,40.59
2023-02-17T22:32:12.324Z,40.56
2023-02-17T22:42:13.737Z,40.59
2023-02-17T22:52:15.142Z,40.44
2023-02-17T23:02:16.544Z,40.43
2023-02-17T23:12:17.929Z,40.53
2023-02-17T23:22:19.345Z,40.46
2023-02-17T23:32:20.728Z,40.55
2023-02-17T23:42:22.113Z,40.60
2023-02-17T23:52:23.637Z,40.51
